Time;durP1;ratioP1;P1;durP2;ratioP2;P2;SDS_P1;SDS_P2;PMS_P1;PMS_P2;Temp;Humidity;BMP_temperature;BMP_pressure;BME280_temperature;BME280_humidity;BME280_pressure;Samples;Min_cycle;Max_cycle;Signal;HPM_P1;HPM_P2
2022/05/27 00:01:14;;;;;;;7.13;6.63;;;;;;;;;;5029619;28;20148;-62
2022/05/27 00:03:40;;;;;;;6.80;6.30;;;;;;;;;;5030959;28;20496;-62
2022/05/27 00:06:06;;;;;;;7.20;6.70;;;;;;;;;;5027622;28;20033;-62
2022/05/27 00:08:32;;;;;;;6.15;5.75;;;;;;;;;;5027160;28;20117;-62
2022/05/27 00:10:59;;;;;;;6.13;5.72;;;;;;;;;;5029588;28;20124;-62
2022/05/27 00:13:25;;;;;;;6.93;5.95;;;;;;;;;;5027580;28;20041;-62
2022/05/27 00:15:51;;;;;;;7.43;6.93;;;;;;;;;;5030197;28;20112;-62
2022/05/27 00:18:17;;;;;;;6.70;6.20;;;;;;;;;;5028581;28;20124;-62
2022/05/27 00:20:43;;;;;;;6.70;6.20;;;;;;;;;;5030759;28;20459;-62
2022/05/27 00:23:08;;;;;;;7.53;6.97;;;;;;;;;;5028753;28;20144;-62
2022/05/27 00:25:33;;;;;;;7.60;7.10;;;;;;;;;;5031342;28;20128;-62
2022/05/27 00:28:00;;;;;;;6.82;6.32;;;;;;;;;;5029239;28;20039;-62
2022/05/27 00:30:26;;;;;;;8.27;7.70;;;;;;;;;;5030819;28;20151;-62
2022/05/27 00:32:52;;;;;;;8.75;8.15;;;;;;;;;;5028572;28;20025;-60
2022/05/27 00:35:18;;;;;;;8.27;7.78;;;;;;;;;;5030366;28;20083;-59
2022/05/27 00:37:43;;;;;;;8.57;7.97;;;;;;;;;;5028350;28;20349;-59
2022/05/27 00:40:10;;;;;;;8.85;8.25;;;;;;;;;;5027514;28;20874;-59
2022/05/27 00:42:44;;;;;;;8.73;8.15;;;;;;;;;;5029837;28;20041;-59
2022/05/27 00:45:15;;;;;;;9.02;8.43;;;;;;;;;;5025703;28;20116;-59
2022/05/27 00:47:40;;;;;;;;;;;;;;;;;;5029094;28;20040;-59
2022/05/27 00:50:10;;;;;;;8.68;8.07;;;;;;;;;;5033461;28;19920;-59
2022/05/27 00:52:37;;;;;;;8.97;8.37;;;;;;;;;;5035154;28;20080;-60
2022/05/27 00:55:07;;;;;;;11.45;10.75;;;;;;;;;;5035165;28;20037;-60
2022/05/27 00:57:38;;;;;;;11.00;10.30;;;;;;;;;;5030929;28;20033;-60
2022/05/27 01:00:12;;;;;;;11.73;11.02;;;;;;;;;;5028421;28;20948;-61
2022/05/27 01:02:37;;;;;;;10.80;10.15;;;;;;;;;;5032575;28;20382;-61
2022/05/27 01:05:05;;;;;;;11.23;10.52;;;;;;;;;;5030235;28;20037;-61
2022/05/27 01:07:31;;;;;;;10.35;9.75;;;;;;;;;;5031683;28;20060;-61
2022/05/27 01:09:57;;;;;;;11.50;10.80;;;;;;;;;;5032896;28;20490;-60
2022/05/27 01:12:35;;;;;;;10.73;10.05;;;;;;;;;;5029994;28;20041;-61
2022/05/27 01:15:26;;;;;;;10.25;9.65;;;;;;;;;;5034808;28;20071;-61
2022/05/27 01:18:20;;;;;;;11.10;10.40;;;;;;;;;;5032105;28;20025;-61
2022/05/27 01:21:00;;;;;;;10.10;9.48;;;;;;;;;;5031176;28;20041;-61
2022/05/27 01:23:51;;;;;;;10.80;10.15;;;;;;;;;;5031000;28;20032;-60
2022/05/27 01:26:43;;;;;;;9.10;8.52;;;;;;;;;;5028139;28;20160;-60
2022/05/27 01:29:39;;;;;;;8.00;7.47;;;;;;;;;;5032156;28;20041;-61
2022/05/27 01:32:13;;;;;;;8.43;7.90;;;;;;;;;;5026644;28;20443;-61
2022/05/27 01:35:20;;;;;;;11.65;10.95;;;;;;;;;;5031451;28;20044;-61
2022/05/27 01:37:59;;;;;;;9.50;8.82;;;;;;;;;;5014688;28;20040;-61
2022/05/27 01:40:39;;;;;;;9.25;8.65;;;;;;;;;;5032679;28;20145;-61
2022/05/27 01:43:17;;;;;;;9.68;9.07;;;;;;;;;;5027101;28;20706;-60
2022/05/27 01:45:55;;;;;;;8.07;7.57;;;;;;;;;;5026088;28;20045;-61
2022/05/27 01:48:35;;;;;;;8.77;8.18;;;;;;;;;;5028298;28;20033;-60
2022/05/27 01:51:08;;;;;;;7.43;6.93;;;;;;;;;;5025622;28;20037;-61
2022/05/27 01:53:47;;;;;;;8.48;7.95;;;;;;;;;;5026563;28;20041;-60
2022/05/27 01:56:20;;;;;;;7.55;7.05;;;;;;;;;;5030013;28;20045;-61
2022/05/27 01:58:51;;;;;;;8.07;7.57;;;;;;;;;;5035592;28;20606;-61
2022/05/27 02:01:22;;;;;;;9.10;8.50;;;;;;;;;;5038974;28;20033;-61
2022/05/27 02:03:57;;;;;;;8.82;8.23;;;;;;;;;;5031093;28;20467;-61
2022/05/27 02:06:27;;;;;;;9.07;8.48;;;;;;;;;;5036206;28;20056;-61
2022/05/27 02:09:08;;;;;;;8.20;7.70;;;;;;;;;;5036354;28;20040;-61
2022/05/27 02:11:34;;;;;;;13.93;10.88;;;;;;;;;;5039280;28;20029;-61
2022/05/27 02:14:08;;;;;;;9.30;8.70;;;;;;;;;;5036747;28;20037;-61
2022/05/27 02:16:55;;;;;;;9.65;9.05;;;;;;;;;;5035636;28;20402;-61
2022/05/27 02:19:26;;;;;;;9.65;9.05;;;;;;;;;;5038425;28;20047;-61
2022/05/27 02:22:03;;;;;;;9.73;9.13;;;;;;;;;;5037632;28;20070;-61
2022/05/27 02:24:36;;;;;;;8.80;8.20;;;;;;;;;;5039311;28;20028;-61
2022/05/27 02:27:12;;;;;;;10.60;9.98;;;;;;;;;;5036767;28;20506;-61
2022/05/27 02:29:41;;;;;;;9.55;8.95;;;;;;;;;;5029645;28;20128;-61
2022/05/27 02:32:15;;;;;;;10.23;9.52;;;;;;;;;;5032148;28;20068;-60
2022/05/27 02:35:08;;;;;;;8.93;8.32;;;;;;;;;;5027740;28;20520;-61
2022/05/27 02:37:46;;;;;;;8.43;7.90;;;;;;;;;;5015758;28;20600;-61
2022/05/27 02:40:29;;;;;;;8.55;7.95;;;;;;;;;;4994134;28;1082978;-61
2022/05/27 02:43:13;;;;;;;7.50;7.00;;;;;;;;;;5012324;28;20056;-61
2022/05/27 02:45:58;;;;;;;7.40;6.90;;;;;;;;;;5030962;28;20451;-61
2022/05/27 02:48:42;;;;;;;8.00;7.50;;;;;;;;;;5029523;28;20037;-61
2022/05/27 02:51:19;;;;;;;6.97;6.47;;;;;;;;;;5029020;28;20033;-61
2022/05/27 02:54:03;;;;;;;7.03;6.53;;;;;;;;;;5030647;28;20040;-60
2022/05/27 02:56:51;;;;;;;7.10;6.60;;;;;;;;;;5030106;28;20112;-61
2022/05/27 02:59:18;;;;;;;6.75;6.25;;;;;;;;;;5034630;28;20111;-61
2022/05/27 03:01:47;;;;;;;7.68;7.18;;;;;;;;;;5032669;28;20366;-62
2022/05/27 03:04:13;;;;;;;8.00;7.50;;;;;;;;;;5028009;28;20037;-61
2022/05/27 03:06:53;;;;;;;7.70;7.10;;;;;;;;;;5031687;28;20087;-61
2022/05/27 03:09:41;;;;;;;7.18;6.68;;;;;;;;;;5028131;28;20075;-61
2022/05/27 03:12:16;;;;;;;7.32;6.82;;;;;;;;;;5022576;28;20642;-61
2022/05/27 03:15:14;;;;;;;7.40;6.90;;;;;;;;;;5028585;28;20626;-61
2022/05/27 03:18:02;;;;;;;6.60;6.18;;;;;;;;;;4994823;28;20803;-61
2022/05/27 03:20:36;;;;;;;7.43;6.93;;;;;;;;;;5028420;28;20033;-60
2022/05/27 03:23:24;;;;;;;7.22;6.70;;;;;;;;;;5023666;28;20083;-61
2022/05/27 03:26:00;;;;;;;6.80;6.30;;;;;;;;;;5028947;28;20123;-61
2022/05/27 03:28:58;;;;;;;6.70;6.20;;;;;;;;;;5028996;28;20631;-61
2022/05/27 03:31:35;;;;;;;6.65;6.15;;;;;;;;;;5028381;28;20418;-61
2022/05/27 03:34:18;;;;;;;7.00;6.40;;;;;;;;;;5025605;28;20029;-61
2022/05/27 03:37:03;;;;;;;6.00;5.60;;;;;;;;;;5027859;28;20052;-62
2022/05/27 03:39:39;;;;;;;6.78;6.28;;;;;;;;;;5029954;28;20045;-61
2022/05/27 03:42:08;;;;;;;7.80;7.20;;;;;;;;;;5030701;28;20057;-61
2022/05/27 03:44:34;;;;;;;6.40;5.90;;;;;;;;;;5030636;28;20087;-61
2022/05/27 03:47:00;;;;;;;6.45;6.03;;;;;;;;;;5029013;28;20044;-60
2022/05/27 03:49:26;;;;;;;7.13;6.63;;;;;;;;;;5028523;28;20034;-61
2022/05/27 03:52:10;;;;;;;6.97;6.47;;;;;;;;;;5029705;28;20095;-60
2022/05/27 03:54:35;;;;;;;6.57;6.07;;;;;;;;;;5029347;28;20111;-61
2022/05/27 03:57:01;;;;;;;7.18;6.68;;;;;;;;;;5029127;28;20090;-61
2022/05/27 03:59:27;;;;;;;6.55;6.07;;;;;;;;;;5030211;28;20041;-61
2022/05/27 04:01:55;;;;;;;6.47;5.97;;;;;;;;;;5029268;28;20032;-60
2022/05/27 04:04:26;;;;;;;5.72;5.32;;;;;;;;;;5028488;28;20032;-61
2022/05/27 04:06:51;;;;;;;8.18;7.65;;;;;;;;;;5028166;28;20474;-61
2022/05/27 04:09:18;;;;;;;6.47;6.03;;;;;;;;;;5029517;28;20034;-61
2022/05/27 04:11:44;;;;;;;6.45;5.95;;;;;;;;;;5035157;28;20474;-60
2022/05/27 04:14:10;;;;;;;8.43;7.07;;;;;;;;;;5033738;28;20041;-60
2022/05/27 04:16:36;;;;;;;7.28;6.72;;;;;;;;;;5036008;28;20098;-60
2022/05/27 04:19:02;;;;;;;7.30;6.72;;;;;;;;;;5033276;28;20033;-60
2022/05/27 04:21:27;;;;;;;6.50;6.05;;;;;;;;;;5033677;28;20454;-61
2022/05/27 04:23:52;;;;;;;7.32;6.82;;;;;;;;;;5036416;28;20098;-61
2022/05/27 04:26:18;;;;;;;6.60;6.10;;;;;;;;;;5035192;28;20040;-60
2022/05/27 04:28:44;;;;;;;6.93;6.43;;;;;;;;;;5035582;28;20033;-61
2022/05/27 04:31:10;;;;;;;6.32;5.90;;;;;;;;;;5036106;28;20033;-60
2022/05/27 04:33:36;;;;;;;6.97;6.47;;;;;;;;;;5032570;28;20175;-60
2022/05/27 04:36:03;;;;;;;7.22;6.68;;;;;;;;;;5033034;28;20049;-60
2022/05/27 04:38:28;;;;;;;8.32;7.82;;;;;;;;;;5034122;28;20024;-60
2022/05/27 04:40:54;;;;;;;6.82;6.32;;;;;;;;;;5039375;28;20032;-60
2022/05/27 04:43:20;;;;;;;6.95;6.45;;;;;;;;;;5036876;28;20355;-61
2022/05/27 04:45:46;;;;;;;7.43;6.93;;;;;;;;;;5033165;28;20052;-61
2022/05/27 04:48:12;;;;;;;6.88;6.38;;;;;;;;;;5036098;28;20041;-61
2022/05/27 04:50:37;;;;;;;7.43;6.82;;;;;;;;;;5036070;28;20363;-61
2022/05/27 04:53:04;;;;;;;6.35;5.85;;;;;;;;;;5025970;28;20048;-61
2022/05/27 04:55:32;;;;;;;7.18;6.68;;;;;;;;;;5043327;28;20063;-60
2022/05/27 04:58:01;;;;;;;7.93;7.43;;;;;;;;;;5028980;28;20127;-61
2022/05/27 05:00:30;;;;;;;8.52;7.95;;;;;;;;;;5028496;28;20046;-60
2022/05/27 05:02:56;;;;;;;6.85;6.35;;;;;;;;;;5028437;28;20053;-61
2022/05/27 05:05:24;;;;;;;7.20;6.35;;;;;;;;;;5028358;28;20032;-60
2022/05/27 05:07:54;;;;;;;8.48;7.95;;;;;;;;;;5028500;28;20071;-61
2022/05/27 05:10:22;;;;;;;7.57;7.07;;;;;;;;;;5024183;28;20033;-60
2022/05/27 05:12:49;;;;;;;8.18;7.68;;;;;;;;;;5027542;28;20155;-60
2022/05/27 05:15:16;;;;;;;7.55;7.05;;;;;;;;;;5026121;28;20029;-60
2022/05/27 05:17:42;;;;;;;9.00;8.40;;;;;;;;;;5029818;28;20029;-60
2022/05/27 05:20:09;;;;;;;8.70;8.10;;;;;;;;;;5026808;28;20028;-60
2022/05/27 05:22:35;;;;;;;7.70;7.20;;;;;;;;;;5031475;28;20033;-59
2022/05/27 05:25:01;;;;;;;9.02;8.43;;;;;;;;;;5027898;28;20034;-59
2022/05/27 05:27:28;;;;;;;9.18;8.57;;;;;;;;;;5031136;28;20042;-60
2022/05/27 05:29:56;;;;;;;9.45;8.85;;;;;;;;;;5029915;28;20044;-60
2022/05/27 05:32:22;;;;;;;10.38;9.68;;;;;;;;;;5027720;28;20026;-61
2022/05/27 05:34:48;;;;;;;9.68;9.07;;;;;;;;;;5031859;28;20116;-62
2022/05/27 05:37:14;;;;;;;9.40;8.80;;;;;;;;;;5034763;28;20625;-61
2022/05/27 05:39:40;;;;;;;10.70;10.00;;;;;;;;;;5038356;28;20103;-60
2022/05/27 05:42:07;;;;;;;10.48;9.88;;;;;;;;;;5036415;28;20051;-61
2022/05/27 05:44:33;;;;;;;11.52;10.73;;;;;;;;;;5037242;28;20029;-61
2022/05/27 05:46:59;;;;;;;11.23;10.52;;;;;;;;;;5039143;28;20450;-62
2022/05/27 05:49:25;;;;;;;10.82;10.15;;;;;;;;;;5038473;28;20119;-60
2022/05/27 05:51:52;;;;;;;9.80;9.20;;;;;;;;;;5038198;28;20092;-60
2022/05/27 05:54:19;;;;;;;9.88;9.27;;;;;;;;;;5052838;28;20053;-59
2022/05/27 05:56:46;;;;;;;9.60;9.00;;;;;;;;;;5036863;28;20105;-60
2022/05/27 05:59:11;;;;;;;10.43;9.82;;;;;;;;;;5033444;28;20033;-60
2022/05/27 06:01:37;;;;;;;11.07;10.38;;;;;;;;;;5041840;28;20031;-60
2022/05/27 06:04:02;;;;;;;10.50;9.82;;;;;;;;;;5040292;28;20139;-60
2022/05/27 06:06:27;;;;;;;10.65;9.95;;;;;;;;;;5037150;28;20421;-60
2022/05/27 06:08:53;;;;;;;10.38;9.77;;;;;;;;;;5040007;28;20060;-60
2022/05/27 06:11:18;;;;;;;12.27;11.50;;;;;;;;;;5033258;28;20044;-59
2022/05/27 06:13:44;;;;;;;11.02;10.23;;;;;;;;;;5038780;28;20029;-60
2022/05/27 06:16:09;;;;;;;10.27;9.68;;;;;;;;;;5041622;28;20348;-60
2022/05/27 06:18:36;;;;;;;9.95;9.35;;;;;;;;;;5039955;28;20052;-59
2022/05/27 06:21:02;;;;;;;10.18;9.57;;;;;;;;;;5035374;28;20032;-60
2022/05/27 06:23:28;;;;;;;10.52;9.93;;;;;;;;;;5037113;28;20404;-59
2022/05/27 06:26:00;;;;;;;9.85;9.25;;;;;;;;;;5037940;28;20402;-59
2022/05/27 06:36:39;;;;;;;7.80;7.30;;;;;;;;;;5035350;28;20141;-60
2022/05/27 06:39:07;;;;;;;7.20;6.70;;;;;;;;;;5038479;28;20473;-60
2022/05/27 06:41:33;;;;;;;7.05;6.55;;;;;;;;;;5038931;28;20411;-60
2022/05/27 06:43:58;;;;;;;8.10;7.40;;;;;;;;;;5030671;28;20059;-60
2022/05/27 06:46:24;;;;;;;9.20;8.60;;;;;;;;;;5031413;28;20115;-60
2022/05/27 06:48:49;;;;;;;8.57;8.07;;;;;;;;;;5034508;28;20040;-60
2022/05/27 06:51:15;;;;;;;8.50;7.97;;;;;;;;;;5031804;28;20044;-61
2022/05/27 06:53:40;;;;;;;8.38;7.78;;;;;;;;;;5031474;28;20629;-60
2022/05/27 06:56:07;;;;;;;8.35;7.85;;;;;;;;;;5033193;28;20071;-59
2022/05/27 06:58:33;;;;;;;9.13;8.52;;;;;;;;;;5030506;28;20040;-60
2022/05/27 07:00:59;;;;;;;7.70;7.20;;;;;;;;;;5031720;28;20363;-60
2022/05/27 07:03:25;;;;;;;7.72;7.22;;;;;;;;;;5032500;28;20060;-62
2022/05/27 07:05:50;;;;;;;9.20;8.60;;;;;;;;;;5030165;28;20034;-62
2022/05/27 07:08:16;;;;;;;8.23;7.72;;;;;;;;;;5027446;28;20434;-62
2022/05/27 07:10:42;;;;;;;8.23;7.72;;;;;;;;;;5027726;28;20057;-63
2022/05/27 07:13:07;;;;;;;8.93;8.35;;;;;;;;;;5027706;28;20867;-62
2022/05/27 07:15:32;;;;;;;8.38;7.78;;;;;;;;;;5033823;28;20040;-62
2022/05/27 07:17:58;;;;;;;7.70;7.20;;;;;;;;;;5031485;28;20136;-61
2022/05/27 07:20:24;;;;;;;8.38;7.78;;;;;;;;;;5031670;28;20112;-61
2022/05/27 07:22:50;;;;;;;7.05;6.55;;;;;;;;;;5029402;28;20103;-61
2022/05/27 07:25:16;;;;;;;7.57;7.07;;;;;;;;;;5028380;28;20045;-60
2022/05/27 07:27:42;;;;;;;8.82;8.05;;;;;;;;;;5029220;28;20038;-61
2022/05/27 07:30:09;;;;;;;8.18;7.63;;;;;;;;;;5030926;28;20514;-61
2022/05/27 07:32:36;;;;;;;8.25;7.63;;;;;;;;;;5030299;28;20477;-61
2022/05/27 07:35:03;;;;;;;8.15;7.65;;;;;;;;;;5028659;28;20037;-60
2022/05/27 07:37:29;;;;;;;7.80;7.30;;;;;;;;;;5037301;28;20080;-60
2022/05/27 07:39:55;;;;;;;8.52;8.00;;;;;;;;;;5033404;28;20043;-60
2022/05/27 07:42:20;;;;;;;8.38;7.88;;;;;;;;;;5036517;28;20116;-60
2022/05/27 07:44:45;;;;;;;8.40;7.90;;;;;;;;;;5032395;28;20087;-61
2022/05/27 07:47:11;;;;;;;7.05;6.55;;;;;;;;;;5031196;28;20129;-60
2022/05/27 07:49:36;;;;;;;10.45;9.85;;;;;;;;;;5032736;28;20134;-61
2022/05/27 07:52:04;;;;;;;8.10;7.60;;;;;;;;;;5034291;28;20045;-60
2022/05/27 07:54:29;;;;;;;9.38;8.77;;;;;;;;;;5034581;28;20398;-60
2022/05/27 07:56:55;;;;;;;7.75;7.25;;;;;;;;;;5036104;28;20032;-59
2022/05/27 07:59:20;;;;;;;8.57;8.02;;;;;;;;;;5036283;28;20091;-59
2022/05/27 08:01:46;;;;;;;10.05;9.45;;;;;;;;;;5036554;28;20450;-61
2022/05/27 08:04:12;;;;;;;8.75;8.15;;;;;;;;;;5036464;28;20095;-59
2022/05/27 08:06:38;;;;;;;8.30;7.80;;;;;;;;;;5036100;28;20077;-60
2022/05/27 08:09:04;;;;;;;9.73;9.13;;;;;;;;;;5035711;28;20453;-60
2022/05/27 08:11:29;;;;;;;12.23;11.52;;;;;;;;;;5037338;28;20033;-61
2022/05/27 08:13:55;;;;;;;8.75;8.15;;;;;;;;;;5035311;28;20428;-60
2022/05/27 08:16:21;;;;;;;8.80;8.23;;;;;;;;;;5033145;28;20029;-60
2022/05/27 08:18:47;;;;;;;8.98;8.38;;;;;;;;;;5035437;28;21270;-60
2022/05/27 08:21:12;;;;;;;9.85;9.25;;;;;;;;;;5035388;28;20025;-60
2022/05/27 08:23:38;;;;;;;10.77;10.10;;;;;;;;;;5033296;28;20116;-60
2022/05/27 08:26:03;;;;;;;10.57;9.98;;;;;;;;;;5034145;28;20017;-60
2022/05/27 08:28:29;;;;;;;9.90;9.30;;;;;;;;;;5032575;28;20534;-60
2022/05/27 08:30:55;;;;;;;10.07;9.48;;;;;;;;;;5033144;28;20041;-60
2022/05/27 08:33:24;;;;;;;9.93;9.32;;;;;;;;;;5037313;28;20029;-61
2022/05/27 08:38:37;;;;;;;6.88;6.38;;;;;;;;;;5032534;28;20044;-60
2022/05/27 08:41:20;;;;;;;9.50;8.90;;;;;;;;;;5034034;28;20421;-60
2022/05/27 08:43:51;;;;;;;10.07;9.48;;;;;;;;;;5034749;28;20549;-61
2022/05/27 08:46:26;;;;;;;9.63;9.02;;;;;;;;;;5031163;28;20026;-62
2022/05/27 08:48:57;;;;;;;9.07;8.48;;;;;;;;;;5027832;28;20037;-63
2022/05/27 08:51:27;;;;;;;7.07;6.57;;;;;;;;;;5034545;28;20029;-61
2022/05/27 08:53:56;;;;;;;10.07;9.48;;;;;;;;;;5034544;28;20116;-62
2022/05/27 08:59:32;;;;;;;8.05;7.55;;;;;;;;;;5034072;28;20018;-62
2022/05/27 09:02:08;;;;;;;9.10;8.50;;;;;;;;;;5032368;28;20058;-62
2022/05/27 09:05:25;;;;;;;10.38;9.77;;;;;;;;;;5032313;28;20021;-62
2022/05/27 09:08:03;;;;;;;9.93;9.32;;;;;;;;;;5019819;28;20041;-61
2022/05/27 09:10:40;;;;;;;9.48;8.88;;;;;;;;;;5037280;28;20087;-61
2022/05/27 09:13:22;;;;;;;8.90;8.30;;;;;;;;;;5036090;28;20052;-61
2022/05/27 09:16:01;;;;;;;8.40;7.90;;;;;;;;;;5039851;28;20032;-61
2022/05/27 09:18:30;;;;;;;8.00;7.50;;;;;;;;;;5037968;28;20026;-62
2022/05/27 09:21:02;;;;;;;9.15;8.57;;;;;;;;;;5034953;28;20037;-61
2022/05/27 09:24:10;;;;;;;8.10;7.60;;;;;;;;;;5037253;28;20025;-61
2022/05/27 09:26:50;;;;;;;7.85;7.35;;;;;;;;;;5023250;28;20397;-61
2022/05/27 09:29:31;;;;;;;7.68;7.18;;;;;;;;;;5040038;28;20064;-60
2022/05/27 09:32:10;;;;;;;9.23;8.63;;;;;;;;;;5033053;28;22167;-60
2022/05/27 09:34:38;;;;;;;11.07;10.38;;;;;;;;;;5030955;28;20025;-61
2022/05/27 09:37:07;;;;;;;7.97;7.47;;;;;;;;;;5034731;28;20123;-60
2022/05/27 09:39:33;;;;;;;9.95;9.35;;;;;;;;;;5036831;28;20033;-61
2022/05/27 09:42:12;;;;;;;12.68;11.95;;;;;;;;;;5035384;28;20025;-60
2022/05/27 09:44:56;;;;;;;12.75;11.98;;;;;;;;;;5036803;28;20666;-62
2022/05/27 09:47:28;;;;;;;10.82;10.18;;;;;;;;;;5032780;28;20044;-60
2022/05/27 09:49:58;;;;;;;10.07;9.48;;;;;;;;;;5037637;28;20033;-61
2022/05/27 09:52:24;;;;;;;;;;;;;;;;;;5035918;28;20482;-60
2022/05/27 09:54:55;;;;;;;7.85;7.35;;;;;;;;;;5037144;28;20330;-62
2022/05/27 09:57:25;;;;;;;7.45;6.95;;;;;;;;;;5037965;28;20037;-61
2022/05/27 09:59:57;;;;;;;8.48;7.93;;;;;;;;;;5038240;28;20371;-61
2022/05/27 10:02:26;;;;;;;7.30;6.80;;;;;;;;;;5034488;28;20040;-60
2022/05/27 10:05:12;;;;;;;9.60;9.00;;;;;;;;;;5037830;28;20486;-60
2022/05/27 10:07:44;;;;;;;10.10;9.50;;;;;;;;;;5036772;28;20045;-61
2022/05/27 10:10:32;;;;;;;9.00;8.40;;;;;;;;;;5037216;28;20040;-60
2022/05/27 10:13:15;;;;;;;9.20;8.60;;;;;;;;;;5026498;28;20120;-60
2022/05/27 10:15:41;;;;;;;8.60;8.00;;;;;;;;;;5033511;28;20092;-60
2022/05/27 10:18:22;;;;;;;9.18;8.57;;;;;;;;;;5032899;28;20041;-60
2022/05/27 10:20:49;;;;;;;;;;;;;;;;;;5034035;28;20040;-60
2022/05/27 10:23:26;;;;;;;8.40;7.90;;;;;;;;;;5032003;28;19917;-60
2022/05/27 10:25:51;;;;;;;9.98;9.38;;;;;;;;;;5034410;28;20057;-61
2022/05/27 10:28:31;;;;;;;10.32;9.73;;;;;;;;;;5032429;28;20501;-60
2022/05/27 10:31:00;;;;;;;9.45;8.85;;;;;;;;;;5035527;28;20494;-60
2022/05/27 10:33:41;;;;;;;9.52;8.93;;;;;;;;;;5037995;28;20037;-62
2022/05/27 10:36:42;;;;;;;9.80;9.20;;;;;;;;;;5034168;28;20592;-61
2022/05/27 10:39:28;;;;;;;9.98;9.38;;;;;;;;;;5036259;28;20552;-62
2022/05/27 10:42:05;;;;;;;9.05;8.45;;;;;;;;;;5034046;28;20025;-62
2022/05/27 10:44:42;;;;;;;9.75;9.15;;;;;;;;;;5036511;28;20067;-61
2022/05/27 10:47:27;;;;;;;8.93;8.32;;;;;;;;;;5034400;28;20041;-62
2022/05/27 10:50:05;;;;;;;9.45;8.85;;;;;;;;;;5034236;28;20026;-61
2022/05/27 10:52:40;;;;;;;7.97;7.47;;;;;;;;;;5035160;28;20056;-61
2022/05/27 10:55:34;;;;;;;8.35;7.78;;;;;;;;;;5034946;28;20506;-62
2022/05/27 11:03:49;;;;;;;8.05;7.55;;;;;;;;;;5034996;28;20037;-61
2022/05/27 11:06:38;;;;;;;7.60;7.10;;;;;;;;;;5034298;28;20481;-61
2022/05/27 11:09:18;;;;;;;9.10;8.50;;;;;;;;;;5034073;28;20068;-62
2022/05/27 11:11:59;;;;;;;8.52;8.02;;;;;;;;;;5035253;28;20106;-61
2022/05/27 11:17:47;;;;;;;8.88;8.27;;;;;;;;;;5033647;28;20033;-61
2022/05/27 11:20:24;;;;;;;8.73;8.13;;;;;;;;;;5033209;28;20068;-60
2022/05/27 11:23:14;;;;;;;7.72;7.22;;;;;;;;;;5026045;28;20136;-60
2022/05/27 11:26:21;;;;;;;9.02;8.43;;;;;;;;;;5031673;28;20047;-60
2022/05/27 11:29:05;;;;;;;10.10;9.50;;;;;;;;;;5018908;28;20048;-59
2022/05/27 11:31:34;;;;;;;9.48;8.88;;;;;;;;;;5031870;28;20219;-60
2022/05/27 11:34:34;;;;;;;9.35;8.65;;;;;;;;;;5033440;28;20115;-60
2022/05/27 11:37:20;;;;;;;9.82;9.23;;;;;;;;;;5028091;28;20368;-61
2022/05/27 11:40:02;;;;;;;9.10;8.50;;;;;;;;;;5031122;28;20033;-60
2022/05/27 11:42:55;;;;;;;8.70;8.15;;;;;;;;;;5029971;28;20525;-61
2022/05/27 11:45:28;;;;;;;9.40;8.80;;;;;;;;;;5012771;28;20041;-61
2022/05/27 11:48:06;;;;;;;9.55;8.95;;;;;;;;;;5027914;28;20419;-61
2022/05/27 11:50:50;;;;;;;9.07;8.48;;;;;;;;;;5027057;28;20542;-60
2022/05/27 11:53:41;;;;;;;8.90;8.32;;;;;;;;;;5032068;28;20028;-62
2022/05/27 11:56:09;;;;;;;;;;;;;;;;;;5030716;28;20033;-60
2022/05/27 11:58:56;;;;;;;8.50;8.00;;;;;;;;;;5031145;28;19912;-58
2022/05/27 12:01:36;;;;;;;8.00;7.50;;;;;;;;;;5028364;28;20041;-60
2022/05/27 12:04:13;;;;;;;8.27;7.77;;;;;;;;;;5029831;28;20570;-58
2022/05/27 12:06:43;;;;;;;7.90;7.40;;;;;;;;;;5028896;28;20292;-58
2022/05/27 12:09:30;;;;;;;;;;;;;;;;;;5026245;28;20407;-57
2022/05/27 12:12:06;;;;;;;7.20;6.70;;;;;;;;;;5025607;28;19917;-58
2022/05/27 12:14:49;;;;;;;6.00;5.60;;;;;;;;;;5026276;28;20029;-61
2022/05/27 12:17:20;;;;;;;5.43;5.03;;;;;;;;;;5023348;28;20037;-62
2022/05/27 12:20:12;;;;;;;;;;;;;;;;;;5024868;28;20300;-63
2022/05/27 12:22:37;;;;;;;9.27;8.68;;;;;;;;;;5029112;28;20400;-61
2022/05/27 12:25:23;;;;;;;8.30;7.80;;;;;;;;;;5022746;28;20037;-62
2022/05/27 12:27:52;;;;;;;8.93;8.32;;;;;;;;;;5031374;28;20052;-62
2022/05/27 12:30:22;;;;;;;11.23;10.55;;;;;;;;;;5029954;28;20032;-61
2022/05/27 12:32:48;;;;;;;15.40;14.50;;;;;;;;;;5031089;28;20395;-61
2022/05/27 12:35:36;;;;;;;15.88;14.98;;;;;;;;;;5028944;28;20098;-62
2022/05/27 12:38:15;;;;;;;10.52;9.88;;;;;;;;;;5027937;28;20542;-64
2022/05/27 12:41:00;;;;;;;9.30;8.70;;;;;;;;;;5027521;28;20041;-63
2022/05/27 12:43:37;;;;;;;9.27;8.68;;;;;;;;;;5027423;28;20045;-64
2022/05/27 12:46:03;;;;;;;9.73;9.13;;;;;;;;;;5024434;28;20047;-63
2022/05/27 12:48:35;;;;;;;8.32;7.82;;;;;;;;;;5028363;28;20048;-63
2022/05/27 12:51:15;;;;;;;9.10;8.50;;;;;;;;;;5027669;28;20242;-63
2022/05/27 12:53:48;;;;;;;7.97;7.47;;;;;;;;;;5029860;28;20472;-62
2022/05/27 13:02:18;;;;;;;7.55;7.05;;;;;;;;;;5029278;28;20545;-61
2022/05/27 13:05:01;;;;;;;8.10;7.60;;;;;;;;;;5029585;28;20036;-61
2022/05/27 13:07:48;;;;;;;8.48;7.90;;;;;;;;;;5029500;28;20037;-61
2022/05/27 13:10:16;;;;;;;8.18;7.68;;;;;;;;;;5030007;28;20048;-61
2022/05/27 13:12:44;;;;;;;8.63;8.10;;;;;;;;;;5034628;28;20028;-61
2022/05/27 13:15:14;;;;;;;8.55;8.05;;;;;;;;;;5032274;28;20106;-61
2022/05/27 13:17:50;;;;;;;8.50;8.00;;;;;;;;;;5033669;28;20036;-61
2022/05/27 13:20:15;;;;;;;9.15;8.55;;;;;;;;;;5033227;28;20505;-60
2022/05/27 13:23:10;;;;;;;7.53;7.03;;;;;;;;;;5035432;28;20112;-60
2022/05/27 13:25:39;;;;;;;6.20;5.80;;;;;;;;;;5028720;28;20033;-60
2022/05/27 13:28:12;;;;;;;7.60;7.10;;;;;;;;;;5033898;28;20033;-60
2022/05/27 13:31:14;;;;;;;7.05;6.55;;;;;;;;;;5031470;28;20063;-60
2022/05/27 13:33:50;;;;;;;7.93;7.43;;;;;;;;;;5029459;28;20045;-59
2022/05/27 13:36:21;;;;;;;8.40;7.90;;;;;;;;;;5029857;28;20037;-59
2022/05/27 13:39:05;;;;;;;9.70;9.10;;;;;;;;;;5032568;28;20144;-59
2022/05/27 13:41:38;;;;;;;10.20;9.60;;;;;;;;;;5034027;28;20102;-59
2022/05/27 13:44:06;;;;;;;9.18;8.57;;;;;;;;;;5031384;28;20970;-59
2022/05/27 13:46:40;;;;;;;9.10;8.50;;;;;;;;;;5030489;28;20640;-59
2022/05/27 13:49:14;;;;;;;9.95;9.35;;;;;;;;;;5032984;28;20029;-59
2022/05/27 13:51:44;;;;;;;11.15;10.45;;;;;;;;;;5033229;28;20439;-59
2022/05/27 13:54:21;;;;;;;9.65;9.05;;;;;;;;;;5034672;28;20532;-58
2022/05/27 13:56:54;;;;;;;10.73;10.02;;;;;;;;;;5035936;28;20033;-58
2022/05/27 13:59:27;;;;;;;14.10;13.30;;;;;;;;;;5031735;28;20094;-59
2022/05/27 14:01:57;;;;;;;13.95;13.15;;;;;;;;;;5030222;28;20072;-58
2022/05/27 14:04:31;;;;;;;14.75;13.85;;;;;;;;;;5031549;28;20144;-58
2022/05/27 14:06:59;;;;;;;14.38;13.57;;;;;;;;;;5032004;28;20396;-58
2022/05/27 14:09:30;;;;;;;15.07;14.20;;;;;;;;;;5031669;28;20560;-58
2022/05/27 14:12:00;;;;;;;13.48;12.68;;;;;;;;;;5028945;28;20045;-59
2022/05/27 14:14:43;;;;;;;12.95;12.15;;;;;;;;;;5024586;28;20033;-59
2022/05/27 14:17:14;;;;;;;10.55;9.95;;;;;;;;;;5031385;28;20047;-59
2022/05/27 14:19:39;;;;;;;13.50;12.70;;;;;;;;;;5033991;28;20029;-58
2022/05/27 14:22:40;;;;;;;10.18;9.57;;;;;;;;;;5032904;28;20033;-59
2022/05/27 14:25:10;;;;;;;13.40;12.60;;;;;;;;;;5028406;28;20049;-59
2022/05/27 14:27:42;;;;;;;13.40;12.60;;;;;;;;;;5027818;28;20530;-58
2022/05/27 14:30:13;;;;;;;19.48;18.40;;;;;;;;;;5033723;28;20041;-59
2022/05/27 14:32:38;;;;;;;16.83;15.93;;;;;;;;;;5034398;28;20041;-59
2022/05/27 14:35:07;;;;;;;12.40;11.70;;;;;;;;;;5028863;28;20045;-59
2022/05/27 14:37:35;;;;;;;15.32;14.43;;;;;;;;;;5028912;28;20041;-59
2022/05/27 14:40:08;;;;;;;28.90;27.40;;;;;;;;;;5032819;28;20029;-58
2022/05/27 14:42:35;;;;;;;69.20;65.75;;;;;;;;;;5033592;28;20037;-58
2022/05/27 14:45:02;;;;;;;54.70;51.92;;;;;;;;;;5033456;28;20091;-58
2022/05/27 14:47:31;;;;;;;55.88;53.08;;;;;;;;;;5033406;28;20035;-58
2022/05/27 14:50:14;;;;;;;108.50;103.18;;;;;;;;;;5033017;28;20403;-58
2022/05/27 14:52:41;;;;;;;62.65;59.47;;;;;;;;;;5029344;28;21207;-58
2022/05/27 14:55:20;;;;;;;101.32;96.32;;;;;;;;;;5034242;28;20044;-57
2022/05/27 14:57:58;;;;;;;87.13;82.80;;;;;;;;;;5033071;28;20041;-56
2022/05/27 15:00:23;;;;;;;31.02;29.42;;;;;;;;;;5030704;28;20021;-57
2022/05/27 15:02:50;;;;;;;24.73;23.42;;;;;;;;;;5030136;28;20035;-54
2022/05/27 15:05:27;;;;;;;45.28;42.97;;;;;;;;;;5031051;28;20040;-54
2022/05/27 15:07:54;;;;;;;23.50;22.13;;;;;;;;;;5029700;28;20037;-56
2022/05/27 15:10:24;;;;;;;74.63;70.88;;;;;;;;;;5031177;28;20540;-55
2022/05/27 15:12:51;;;;;;;52.33;49.40;;;;;;;;;;5036866;28;20548;-57
2022/05/27 15:15:30;;;;;;;87.93;83.57;;;;;;;;;;5031439;28;20072;-56
2022/05/27 15:18:13;;;;;;;100.57;95.63;;;;;;;;;;5030583;28;20025;-58
2022/05/27 15:20:44;;;;;;;84.93;80.70;;;;;;;;;;5029674;28;20505;-55
2022/05/27 15:23:10;;;;;;;58.10;55.15;;;;;;;;;;5033365;28;20045;-56
2022/05/27 15:25:39;;;;;;;34.13;32.35;;;;;;;;;;5030036;28;20041;-58
2022/05/27 15:36:03;;;;;;;21.75;20.55;;;;;;;;;;5023832;28;20049;-59
2022/05/27 15:38:30;;;;;;;33.80;32.03;;;;;;;;;;5030718;28;20032;-59
2022/05/27 15:40:59;;;;;;;36.88;34.97;;;;;;;;;;5034434;28;20025;-57
2022/05/27 15:43:33;;;;;;;29.63;28.08;;;;;;;;;;5033022;28;20304;-58
2022/05/27 15:46:00;;;;;;;55.90;53.08;;;;;;;;;;5031894;28;20716;-59
2022/05/27 15:48:25;;;;;;;75.35;71.60;;;;;;;;;;5032043;28;20032;-58